Time;durP1;ratioP1;P1;durP2;ratioP2;P2;SDS_P1;SDS_P2;PMS_P1;PMS_P2;Temp;Humidity;BMP_temperature;BMP_pressure;BME280_temperature;BME280_humidity;BME280_pressure;Samples;Min_cycle;Max_cycle;Signal;HPM_P1;HPM_P2
2022/09/13 00:00:38;;;;;;;10.77;4.70;;;12.00;99.90;;;;;;5029282;28;20034;-64
2022/09/13 00:03:04;;;;;;;7.45;4.50;;;12.00;99.90;;;;;;5027438;28;20033;-66
2022/09/13 00:05:30;;;;;;;13.23;4.88;;;11.90;99.90;;;;;;5028794;28;20048;-64
2022/09/13 00:07:56;;;;;;;7.35;4.38;;;12.00;99.90;;;;;;5026535;28;20037;-70
2022/09/13 00:10:23;;;;;;;9.32;4.70;;;12.00;99.90;;;;;;5027359;28;20037;-69
2022/09/13 00:12:49;;;;;;;9.02;4.50;;;12.00;99.90;;;;;;5009328;28;20092;-67
2022/09/13 00:15:14;;;;;;;10.65;4.50;;;12.00;99.90;;;;;;5008467;28;20025;-67
2022/09/13 00:17:40;;;;;;;8.85;4.53;;;11.90;99.90;;;;;;5028276;28;20104;-65
2022/09/13 00:20:07;;;;;;;12.07;4.80;;;11.80;99.90;;;;;;5028058;28;20124;-65
2022/09/13 00:22:33;;;;;;;12.70;4.40;;;11.70;99.90;;;;;;5027267;28;20079;-67
2022/09/13 00:24:59;;;;;;;9.50;4.60;;;11.70;99.90;;;;;;5028123;28;20087;-71
2022/09/13 00:27:25;;;;;;;8.75;4.53;;;11.60;99.90;;;;;;5027536;28;20033;-65
2022/09/13 00:29:50;;;;;;;8.52;4.55;;;11.60;99.90;;;;;;5030411;28;20116;-63
2022/09/13 00:32:16;;;;;;;8.57;4.55;;;11.60;99.90;;;;;;5030560;28;20329;-64
2022/09/13 00:34:42;;;;;;;8.65;5.03;;;11.60;99.90;;;;;;5032379;28;20053;-67
2022/09/13 00:37:08;;;;;;;7.95;4.95;;;11.70;99.90;;;;;;5028869;28;20505;-65
2022/09/13 00:39:34;;;;;;;8.52;5.35;;;11.70;99.90;;;;;;5031556;28;20068;-65
2022/09/13 00:41:59;;;;;;;12.80;6.15;;;11.80;99.90;;;;;;5030682;28;20095;-69
2022/09/13 00:45:02;;;;;;;14.40;6.47;;;11.80;99.90;;;;;;5031535;28;20470;-63
2022/09/13 00:48:00;;;;;;;10.93;5.72;;;11.80;99.90;;;;;;5032211;28;20048;-65
2022/09/13 00:50:36;;;;;;;10.40;5.75;;;11.90;99.90;;;;;;5024509;28;20073;-65
2022/09/13 00:53:07;;;;;;;9.93;4.40;;;11.90;99.90;;;;;;5029997;28;20035;-66
2022/09/13 00:55:48;;;;;;;9.10;5.13;;;11.80;99.90;;;;;;5031371;28;20060;-66
2022/09/13 00:58:28;;;;;;;8.77;4.72;;;11.80;99.90;;;;;;5031309;28;20029;-65
2022/09/13 01:00:56;;;;;;;9.00;4.88;;;11.70;99.90;;;;;;5029035;28;20041;-65
2022/09/13 01:03:26;;;;;;;9.13;4.78;;;11.60;99.90;;;;;;5030538;28;20032;-64
2022/09/13 01:05:57;;;;;;;11.95;4.85;;;11.60;99.90;;;;;;5029355;28;20034;-64
2022/09/13 01:08:23;;;;;;;7.90;4.57;;;11.40;99.90;;;;;;5030316;28;20053;-65
2022/09/13 01:10:50;;;;;;;8.32;4.90;;;11.40;99.90;;;;;;5031424;28;20119;-65
2022/09/13 01:13:22;;;;;;;10.02;5.35;;;11.30;99.90;;;;;;5029435;28;20048;-64
2022/09/13 01:15:48;;;;;;;10.05;5.20;;;11.30;99.90;;;;;;5031384;28;20371;-64
2022/09/13 01:18:14;;;;;;;8.13;4.93;;;11.30;99.90;;;;;;5029958;28;20037;-66
2022/09/13 01:21:11;;;;;;;8.30;5.05;;;11.20;99.90;;;;;;5030681;28;20049;-64
2022/09/13 01:23:43;;;;;;;10.60;4.95;;;11.20;99.90;;;;;;5030419;28;20557;-65
2022/09/13 01:26:21;;;;;;;8.18;5.05;;;11.20;99.90;;;;;;5030663;28;20036;-65
2022/09/13 01:29:14;;;;;;;15.30;5.32;;;11.30;99.90;;;;;;5030355;28;20021;-63
2022/09/13 01:32:11;;;;;;;10.45;5.35;;;11.20;99.90;;;;;;5011327;28;20104;-67
2022/09/13 01:34:55;;;;;;;10.25;5.85;;;11.20;99.90;;;;;;5027534;28;20111;-65
2022/09/13 01:37:37;;;;;;;11.10;5.55;;;11.30;99.90;;;;;;5029499;28;20115;-65
2022/09/13 01:40:17;;;;;;;9.52;5.40;;;11.30;99.90;;;;;;5029128;28;20034;-70
2022/09/13 01:42:58;;;;;;;9.98;5.80;;;11.40;99.90;;;;;;5031138;28;20029;-65
2022/09/13 01:45:36;;;;;;;10.35;5.85;;;11.40;99.90;;;;;;5028869;28;20031;-65
2022/09/13 01:48:26;;;;;;;8.77;5.07;;;11.50;99.90;;;;;;5029447;28;20456;-71
2022/09/13 01:50:56;;;;;;;9.57;5.25;;;11.40;99.90;;;;;;5027902;28;20140;-65
2022/09/13 01:53:34;;;;;;;9.77;5.30;;;11.40;99.90;;;;;;5029501;28;20597;-67
2022/09/13 01:56:04;;;;;;;9.20;5.22;;;11.30;99.90;;;;;;5030954;28;20063;-65
2022/09/13 01:58:48;;;;;;;10.63;5.43;;;11.20;99.90;;;;;;5029775;28;20033;-65
2022/09/13 02:01:22;;;;;;;9.63;4.85;;;11.20;99.90;;;;;;5030031;28;20492;-64
2022/09/13 02:03:54;;;;;;;9.10;5.22;;;11.20;99.90;;;;;;5028431;28;20068;-65
2022/09/13 02:06:24;;;;;;;9.13;4.72;;;11.20;99.90;;;;;;5028248;28;20470;-65
2022/09/13 02:09:12;;;;;;;8.30;4.80;;;11.20;99.90;;;;;;5029978;28;20037;-66
2022/09/13 02:11:41;;;;;;;8.77;5.15;;;11.20;99.90;;;;;;5029747;28;20044;-63
2022/09/13 02:14:14;;;;;;;10.30;5.15;;;11.20;99.90;;;;;;5029795;28;20175;-66
2022/09/13 02:16:51;;;;;;;11.98;5.47;;;11.20;99.90;;;;;;5029225;28;20397;-65
2022/09/13 02:19:26;;;;;;;9.60;4.82;;;11.20;99.90;;;;;;5029137;28;20235;-65
2022/09/13 02:21:57;;;;;;;15.75;5.70;;;11.20;99.90;;;;;;5029140;28;20377;-65
2022/09/13 02:24:33;;;;;;;10.35;5.53;;;11.20;99.90;;;;;;5029613;28;20021;-65
2022/09/13 02:27:04;;;;;;;13.57;5.22;;;11.20;99.90;;;;;;5029920;28;20478;-65
2022/09/13 02:29:32;;;;;;;10.15;5.18;;;11.00;99.90;;;;;;5029830;28;20048;-64
2022/09/13 02:32:07;;;;;;;10.10;6.03;;;11.00;99.90;;;;;;5029096;28;20057;-65
2022/09/13 02:34:39;;;;;;;8.35;5.20;;;11.00;99.90;;;;;;5028623;28;20044;-65
2022/09/13 02:37:07;;;;;;;10.65;6.25;;;11.10;99.90;;;;;;5027794;28;20048;-69
2022/09/13 02:39:37;;;;;;;12.98;5.57;;;11.00;99.90;;;;;;5030085;28;20030;-66
2022/09/13 02:42:07;;;;;;;9.50;5.87;;;11.00;99.90;;;;;;5029040;28;20059;-71
2022/09/13 02:44:36;;;;;;;10.88;6.13;;;11.00;99.90;;;;;;5030195;28;20029;-66
2022/09/13 02:47:08;;;;;;;11.65;5.95;;;11.10;99.90;;;;;;5028682;28;20041;-65
2022/09/13 02:49:52;;;;;;;12.57;6.18;;;11.10;99.90;;;;;;5027955;28;20052;-66
2022/09/13 02:52:41;;;;;;;12.20;5.47;;;11.10;99.90;;;;;;5028487;28;20060;-65
2022/09/13 02:55:30;;;;;;;12.60;5.72;;;11.10;99.90;;;;;;5027418;28;20163;-71
2022/09/13 02:58:05;;;;;;;11.05;6.13;;;11.10;99.90;;;;;;5029739;28;20033;-65
2022/09/13 03:00:31;;;;;;;15.07;6.07;;;11.10;99.90;;;;;;5027272;28;20025;-65
2022/09/13 03:03:01;;;;;;;10.50;5.53;;;11.00;99.90;;;;;;5028294;28;20039;-65
2022/09/13 03:05:27;;;;;;;13.90;6.13;;;10.90;99.90;;;;;;5028239;28;20029;-65
2022/09/13 03:07:53;;;;;;;10.63;5.63;;;10.80;99.90;;;;;;5029598;28;20113;-66
2022/09/13 03:10:22;;;;;;;11.88;5.90;;;10.80;99.90;;;;;;5027938;28;20042;-65
2022/09/13 03:13:02;;;;;;;8.80;5.28;;;10.70;99.90;;;;;;5026886;28;20037;-65
2022/09/13 03:15:28;;;;;;;;;;;10.60;99.90;;;;;;5027018;28;20028;-65
2022/09/13 03:18:16;;;;;;;12.00;5.57;;;10.60;99.90;;;;;;5025557;28;19913;-65
2022/09/13 03:20:44;;;;;;;10.07;5.30;;;10.50;99.90;;;;;;5026182;28;20120;-66
2022/09/13 03:23:21;;;;;;;10.00;5.57;;;10.50;99.90;;;;;;5026993;28;20037;-67
2022/09/13 03:26:02;;;;;;;8.02;4.78;;;10.40;99.90;;;;;;5027730;28;20442;-65
2022/09/13 03:28:47;;;;;;;;;;;10.50;99.90;;;;;;5028967;28;20026;-65
2022/09/13 03:31:31;;;;;;;10.13;4.65;;;10.50;99.90;;;;;;5027033;28;19943;-65
2022/09/13 03:34:03;;;;;;;6.93;4.10;;;10.50;99.90;;;;;;5024783;28;20048;-65
2022/09/13 03:36:34;;;;;;;10.00;4.72;;;10.50;99.90;;;;;;5028243;28;20045;-65
2022/09/13 03:39:06;;;;;;;;;;;10.50;99.90;;;;;;5028104;28;20072;-70
2022/09/13 03:41:38;;;;;;;9.07;4.60;;;10.50;99.90;;;;;;5009076;28;19913;-66
2022/09/13 03:44:07;;;;;;;8.82;4.97;;;10.50;99.90;;;;;;5023708;28;20724;-68
2022/09/13 03:46:46;;;;;;;7.50;4.53;;;10.50;99.90;;;;;;5024432;28;20494;-66
2022/09/13 03:49:14;;;;;;;11.02;4.70;;;10.50;99.90;;;;;;5025932;28;20040;-64
2022/09/13 03:51:43;;;;;;;10.25;5.07;;;10.50;99.90;;;;;;5028123;28;20120;-65
2022/09/13 03:54:22;;;;;;;7.32;4.70;;;10.50;99.90;;;;;;5027804;28;20030;-70
2022/09/13 03:57:19;;;;;;;11.80;4.68;;;10.50;99.90;;;;;;5009504;28;20478;-65
2022/09/13 03:59:56;;;;;;;11.23;4.80;;;10.50;99.90;;;;;;5027930;28;20501;-64
2022/09/13 04:02:24;;;;;;;11.68;5.10;;;10.40;99.90;;;;;;5008817;28;20029;-65
2022/09/13 04:04:50;;;;;;;10.00;4.90;;;10.30;99.90;;;;;;5028009;28;20047;-66
2022/09/13 04:07:21;;;;;;;13.52;4.13;;;10.30;99.90;;;;;;5032282;28;20034;-64
2022/09/13 04:09:46;;;;;;;9.13;4.95;;;10.30;99.90;;;;;;5031934;28;20371;-65
2022/09/13 04:12:13;;;;;;;12.93;5.32;;;10.30;99.90;;;;;;5024485;28;20045;-66
2022/09/13 04:14:41;;;;;;;9.27;4.68;;;10.30;99.90;;;;;;5027609;28;20176;-63
2022/09/13 04:17:07;;;;;;;9.38;5.15;;;10.30;99.90;;;;;;5028902;28;20037;-66
2022/09/13 04:19:33;;;;;;;9.93;4.65;;;10.40;99.90;;;;;;5027529;28;20489;-63
2022/09/13 04:21:58;;;;;;;9.80;4.97;;;10.40;99.90;;;;;;5027107;28;20037;-65
2022/09/13 04:24:27;;;;;;;8.65;4.30;;;10.30;99.90;;;;;;5029040;28;20034;-65
2022/09/13 04:26:53;;;;;;;9.50;4.65;;;10.30;99.90;;;;;;5026702;28;20603;-65
2022/09/13 04:29:20;;;;;;;9.35;5.50;;;10.30;99.90;;;;;;5034922;28;20036;-65
2022/09/13 04:31:47;;;;;;;9.15;5.43;;;10.30;99.90;;;;;;5022653;28;20049;-64
2022/09/13 04:34:13;;;;;;;8.85;4.78;;;10.30;99.90;;;;;;5029271;28;20038;-70
2022/09/13 04:36:39;;;;;;;10.13;5.03;;;10.40;99.90;;;;;;5030451;28;20848;-63
2022/09/13 04:39:05;;;;;;;9.55;4.68;;;10.30;99.90;;;;;;5031002;28;20030;-62
2022/09/13 04:41:34;;;;;;;12.38;3.70;;;10.30;99.90;;;;;;5029343;28;20307;-66
2022/09/13 04:44:00;;;;;;;9.98;4.30;;;10.10;99.90;;;;;;5031272;28;20063;-64
2022/09/13 04:46:27;;;;;;;12.30;5.00;;;10.10;99.90;;;;;;5030874;28;20038;-64
2022/09/13 04:48:53;;;;;;;11.40;5.20;;;10.00;99.90;;;;;;5030739;28;20522;-66
2022/09/13 04:51:20;;;;;;;7.97;4.70;;;10.10;99.90;;;;;;5029393;28;20037;-66
2022/09/13 04:53:51;;;;;;;9.05;4.55;;;10.10;99.90;;;;;;5031480;28;20033;-64
2022/09/13 04:56:18;;;;;;;9.40;5.20;;;10.20;99.90;;;;;;5029139;28;20034;-65
2022/09/13 04:58:44;;;;;;;11.93;4.75;;;10.20;99.90;;;;;;5033022;28;20084;-63
2022/09/13 05:01:09;;;;;;;13.38;5.22;;;10.20;99.90;;;;;;5029983;28;20041;-67
2022/09/13 05:03:35;;;;;;;9.18;5.40;;;10.20;99.90;;;;;;5026808;28;20111;-65
2022/09/13 05:06:18;;;;;;;9.77;5.38;;;10.30;99.90;;;;;;5029252;28;20040;-65
2022/09/13 05:08:49;;;;;;;13.75;5.35;;;10.40;99.90;;;;;;5028433;28;20421;-66
2022/09/13 05:11:14;;;;;;;;;;;10.40;99.90;;;;;;5030364;28;20057;-71
2022/09/13 05:13:40;;;;;;;6.95;4.35;;;10.30;99.90;;;;;;5031268;28;19909;-66
2022/09/13 05:16:06;;;;;;;10.98;4.70;;;10.10;99.90;;;;;;5028807;28;20030;-65
2022/09/13 05:18:35;;;;;;;8.63;4.53;;;10.00;99.90;;;;;;5029453;28;20184;-66
2022/09/13 05:21:03;;;;;;;10.85;4.70;;;10.00;99.90;;;;;;5030498;28;20038;-64
2022/09/13 05:23:30;;;;;;;10.60;5.25;;;10.10;99.90;;;;;;5025418;28;20060;-65
2022/09/13 05:25:58;;;;;;;9.20;5.50;;;10.20;99.90;;;;;;5029783;28;20103;-63
2022/09/13 05:28:24;;;;;;;11.65;5.22;;;10.40;99.90;;;;;;5026967;28;20582;-66
2022/09/13 05:30:57;;;;;;;8.15;4.88;;;10.50;99.90;;;;;;5029083;28;20041;-67
2022/09/13 05:33:24;;;;;;;15.77;5.30;;;10.60;99.90;;;;;;5028287;28;20036;-63
2022/09/13 05:35:50;;;;;;;9.77;5.15;;;10.60;99.90;;;;;;5030862;28;20086;-69
2022/09/13 05:38:16;;;;;;;12.18;5.30;;;10.60;99.90;;;;;;5029061;28;20466;-70
2022/09/13 05:40:42;;;;;;;10.30;5.63;;;10.70;99.90;;;;;;5030078;28;20038;-64
2022/09/13 05:43:07;;;;;;;12.02;5.28;;;10.80;99.90;;;;;;5027839;28;20029;-65
2022/09/13 05:45:33;;;;;;;12.55;5.50;;;10.70;99.90;;;;;;5030223;28;20670;-65
2022/09/13 05:47:58;;;;;;;8.38;4.40;;;10.70;99.90;;;;;;5029718;28;20037;-65
2022/09/13 05:50:24;;;;;;;7.72;4.80;;;10.80;99.90;;;;;;5026594;28;20036;-70
2022/09/13 05:52:54;;;;;;;10.30;4.95;;;10.90;99.90;;;;;;5027362;28;20040;-65
2022/09/13 05:55:21;;;;;;;11.27;5.40;;;11.00;99.90;;;;;;5029669;28;20037;-64
2022/09/13 05:57:47;;;;;;;8.98;5.35;;;11.30;99.90;;;;;;5030607;28;20064;-62
2022/09/13 06:00:13;;;;;;;13.02;6.20;;;11.40;99.90;;;;;;5030940;28;20030;-65
2022/09/13 06:02:40;;;;;;;10.88;6.00;;;11.60;99.90;;;;;;5028917;28;20037;-65
2022/09/13 06:05:09;;;;;;;13.93;5.45;;;11.80;99.90;;;;;;5027262;28;20449;-65
2022/09/13 06:07:35;;;;;;;11.80;4.97;;;11.90;99.90;;;;;;5025061;28;20029;-67
2022/09/13 06:10:03;;;;;;;10.63;5.22;;;12.10;99.90;;;;;;5029487;28;20065;-67
2022/09/13 06:12:29;;;;;;;10.18;4.82;;;12.10;99.90;;;;;;5028337;28;20033;-65
2022/09/13 06:14:55;;;;;;;10.05;4.88;;;12.10;99.90;;;;;;5029298;28;20378;-67
2022/09/13 06:17:20;;;;;;;9.13;4.40;;;12.00;99.90;;;;;;5028448;28;20033;-65
2022/09/13 06:19:46;;;;;;;7.93;4.10;;;11.90;99.90;;;;;;5029382;28;20098;-63
2022/09/13 06:22:11;;;;;;;13.18;5.20;;;11.90;99.90;;;;;;5023114;28;20047;-64
2022/09/13 06:24:37;;;;;;;7.03;4.22;;;11.90;99.90;;;;;;5027367;28;20026;-65
2022/09/13 06:27:03;;;;;;;7.97;4.38;;;11.80;99.90;;;;;;5027511;28;20029;-69
2022/09/13 06:29:29;;;;;;;10.10;5.03;;;11.90;99.90;;;;;;5029278;28;20034;-65
2022/09/13 06:31:54;;;;;;;7.30;4.60;;;11.90;99.90;;;;;;5027493;28;20045;-67
2022/09/13 06:34:20;;;;;;;7.75;4.80;;;12.00;99.90;;;;;;5029109;28;20037;-70
2022/09/13 06:36:46;;;;;;;10.65;4.78;;;12.00;99.90;;;;;;5027751;28;20042;-64
2022/09/13 06:39:11;;;;;;;10.23;4.60;;;12.20;99.90;;;;;;5028065;28;20034;-68
2022/09/13 06:41:37;;;;;;;7.53;4.70;;;12.20;99.90;;;;;;5026730;28;20162;-68
2022/09/13 06:44:03;;;;;;;8.98;4.85;;;12.40;99.90;;;;;;5028735;28;20139;-68
2022/09/13 06:46:32;;;;;;;8.77;5.47;;;12.50;99.90;;;;;;5027708;28;20034;-67
2022/09/13 06:49:05;;;;;;;9.10;4.63;;;12.60;99.90;;;;;;5029738;28;20047;-66
2022/09/13 06:51:32;;;;;;;8.82;5.22;;;12.70;99.90;;;;;;5026934;28;20037;-66
2022/09/13 06:53:59;;;;;;;8.25;4.75;;;12.70;99.90;;;;;;5029557;28;20083;-64
2022/09/13 06:56:31;;;;;;;9.73;4.90;;;12.70;99.90;;;;;;5024458;28;20034;-66
2022/09/13 06:58:59;;;;;;;12.80;4.80;;;12.70;99.90;;;;;;5029710;28;20083;-64
2022/09/13 07:01:31;;;;;;;7.75;4.45;;;12.80;99.90;;;;;;5025517;28;20081;-65
2022/09/13 07:04:02;;;;;;;12.20;5.18;;;12.90;99.90;;;;;;5026260;28;20037;-65
2022/09/13 07:06:30;;;;;;;7.38;4.40;;;13.10;99.90;;;;;;5025141;28;20052;-66
2022/09/13 07:08:58;;;;;;;10.85;5.05;;;13.30;99.90;;;;;;5027865;28;20057;-63
2022/09/13 07:11:27;;;;;;;13.73;6.38;;;13.60;99.90;;;;;;5041031;28;20029;-66
2022/09/13 07:13:55;;;;;;;11.20;6.65;;;13.90;99.90;;;;;;5029789;28;20036;-67
2022/09/13 07:16:26;;;;;;;14.45;5.25;;;14.10;99.90;;;;;;5027929;28;20052;-72
2022/09/13 07:18:53;;;;;;;9.63;5.35;;;14.30;99.90;;;;;;5027887;28;20159;-66
2022/09/13 07:21:19;;;;;;;8.25;5.30;;;14.20;99.90;;;;;;5025176;28;20375;-70
2022/09/13 07:23:45;;;;;;;12.73;5.88;;;14.30;99.90;;;;;;5028609;28;20466;-70
2022/09/13 07:26:11;;;;;;;9.07;5.05;;;14.40;99.90;;;;;;5024301;28;20040;-67
2022/09/13 07:28:40;;;;;;;10.43;5.22;;;14.60;99.90;;;;;;5028496;28;20026;-64
2022/09/13 07:31:21;;;;;;;11.68;6.00;;;14.70;99.90;;;;;;5029097;28;20486;-63
2022/09/13 07:33:51;;;;;;;8.57;5.53;;;14.80;99.90;;;;;;5027179;28;20036;-66
2022/09/13 07:36:17;;;;;;;14.77;5.55;;;15.00;99.90;;;;;;5024630;28;20106;-67
2022/09/13 07:38:46;;;;;;;18.85;6.20;;;15.10;99.90;;;;;;5025315;28;20874;-67
2022/09/13 07:41:15;;;;;;;11.77;6.03;;;15.30;99.90;;;;;;5031540;28;20036;-64
2022/09/13 07:43:41;;;;;;;12.45;6.38;;;15.40;99.90;;;;;;5030285;28;20661;-64
2022/09/13 07:46:11;;;;;;;13.15;6.50;;;15.50;99.90;;;;;;5032071;28;20041;-64
2022/09/13 07:48:39;;;;;;;11.40;6.32;;;15.70;99.90;;;;;;5031487;28;20036;-68
2022/09/13 07:51:07;;;;;;;11.15;5.35;;;15.90;99.90;;;;;;5031130;28;20199;-63
2022/09/13 07:53:34;;;;;;;11.95;5.95;;;16.00;99.90;;;;;;5031198;28;20045;-63
2022/09/13 07:56:05;;;;;;;11.63;5.93;;;16.20;99.90;;;;;;5029541;28;20033;-65
2022/09/13 07:58:32;;;;;;;10.98;5.93;;;16.40;99.90;;;;;;5031326;28;20037;-65
2022/09/13 08:01:11;;;;;;;9.77;5.43;;;16.50;99.90;;;;;;5032094;28;20029;-65
2022/09/13 08:03:37;;;;;;;12.23;6.47;;;16.70;99.90;;;;;;5030823;28;20034;-63
2022/09/13 08:06:04;;;;;;;13.13;5.80;;;17.00;99.90;;;;;;5030800;28;20288;-65
2022/09/13 08:08:32;;;;;;;8.50;5.55;;;17.10;99.90;;;;;;5029463;28;20033;-65
2022/09/13 08:10:58;;;;;;;9.90;5.22;;;17.30;99.90;;;;;;5028310;28;20033;-64
2022/09/13 08:13:24;;;;;;;8.60;4.85;;;17.40;99.90;;;;;;5031590;28;20029;-68
2022/09/13 08:15:50;;;;;;;9.13;4.90;;;17.70;99.90;;;;;;5030993;28;20036;-64
2022/09/13 08:18:17;;;;;;;8.48;4.68;;;17.80;99.90;;;;;;5030211;28;20021;-65
2022/09/13 08:20:42;;;;;;;14.10;5.15;;;18.00;99.90;;;;;;5030498;28;20056;-66
2022/09/13 08:23:09;;;;;;;9.73;5.05;;;18.20;99.90;;;;;;5032176;28;20028;-66
2022/09/13 08:25:37;;;;;;;8.05;4.40;;;18.40;99.90;;;;;;5029703;28;20033;-63
2022/09/13 08:28:17;;;;;;;6.32;4.32;;;18.60;99.90;;;;;;5020349;28;20608;-64
2022/09/13 08:30:43;;;;;;;10.18;4.05;;;18.70;99.90;;;;;;5028424;28;20042;-65
2022/09/13 08:33:10;;;;;;;7.90;4.40;;;18.90;99.90;;;;;;5031381;28;20044;-66
2022/09/13 08:35:37;;;;;;;10.23;5.05;;;19.00;99.90;;;;;;5028472;28;20183;-70
2022/09/13 08:38:04;;;;;;;11.32;4.70;;;19.20;99.90;;;;;;5030250;28;20118;-69
2022/09/13 08:40:37;;;;;;;8.90;4.47;;;19.30;99.90;;;;;;5029247;28;21135;-66
2022/09/13 08:43:15;;;;;;;6.93;3.75;;;19.60;99.90;;;;;;5030167;28;20037;-64
2022/09/13 08:45:41;;;;;;;9.93;4.75;;;19.80;99.90;;;;;;5025337;28;20030;-65
2022/09/13 08:48:19;;;;;;;6.68;3.13;;;19.90;99.90;;;;;;5031492;28;20029;-63
2022/09/13 08:50:47;;;;;;;6.25;3.50;;;20.10;99.90;;;;;;5029433;28;20036;-64
2022/09/13 08:53:23;;;;;;;7.38;3.38;;;20.10;99.90;;;;;;5029918;28;20040;-64
2022/09/13 08:55:57;;;;;;;5.90;3.35;;;20.30;99.90;;;;;;5031256;28;20167;-65
2022/09/13 08:58:35;;;;;;;8.18;3.30;;;20.40;99.90;;;;;;5030782;28;20021;-64
2022/09/13 09:01:30;;;;;;;7.30;3.40;;;20.50;99.90;;;;;;5027615;28;20376;-63
2022/09/13 09:04:26;;;;;;;6.50;3.50;;;20.60;99.90;;;;;;5028385;28;20112;-67
2022/09/13 09:07:12;;;;;;;9.07;3.10;;;20.80;99.90;;;;;;5020871;28;20462;-67
2022/09/13 09:09:47;;;;;;;5.50;2.88;;;20.90;99.90;;;;;;5029499;28;20409;-66
2022/09/13 09:12:42;;;;;;;3.92;3.10;;;21.00;99.90;;;;;;5031355;28;20033;-63
2022/09/13 09:15:14;;;;;;;7.45;3.30;;;21.10;99.90;;;;;;5026356;28;20048;-65
2022/09/13 09:17:44;;;;;;;7.72;2.70;;;21.10;99.90;;;;;;5027240;28;20029;-67
2022/09/13 09:20:31;;;;;;;3.75;2.75;;;21.30;99.90;;;;;;5028776;28;20040;-64
2022/09/13 09:23:03;;;;;;;3.60;2.60;;;21.30;99.90;;;;;;5028540;28;20036;-64
2022/09/13 09:25:30;;;;;;;5.90;2.75;;;21.50;99.90;;;;;;5028689;28;20500;-69
2022/09/13 09:27:58;;;;;;;5.40;2.58;;;21.70;99.90;;;;;;5023811;28;20029;-64
2022/09/13 09:30:37;;;;;;;4.55;2.75;;;21.80;99.90;;;;;;5036966;28;20032;-64
2022/09/13 09:33:03;;;;;;;3.67;2.60;;;21.80;99.90;;;;;;5036840;28;20064;-65
2022/09/13 09:35:49;;;;;;;4.40;2.42;;;21.80;99.90;;;;;;5035608;28;20029;-69
2022/09/13 09:38:34;;;;;;;3.83;2.65;;;21.80;99.90;;;;;;5030691;28;20048;-64
2022/09/13 09:41:05;;;;;;;6.43;2.45;;;21.80;99.90;;;;;;5027454;28;20040;-64
2022/09/13 09:44:05;;;;;;;4.72;2.80;;;21.80;99.90;;;;;;5029691;28;20036;-68
2022/09/13 09:46:33;;;;;;;7.70;2.88;;;22.00;99.90;;;;;;5001385;28;20069;-69
2022/09/13 09:50:07;;;;;;;3.60;2.22;;;22.30;99.90;;;;;;5029532;28;20037;-63
2022/09/13 09:52:00;;;;;;;3.10;2.50;;;22.50;99.90;;;;;;5012650;28;20113;-64
2022/09/13 09:54:29;;;;;;;4.82;2.30;;;22.50;99.90;;;;;;5028393;28;20528;-65
2022/09/13 09:56:55;;;;;;;5.20;2.50;;;22.50;99.90;;;;;;5010688;28;20036;-63
2022/09/13 09:59:26;;;;;;;4.43;2.60;;;22.50;99.90;;;;;;5014847;28;20108;-63
2022/09/13 10:01:54;;;;;;;10.25;2.30;;;22.60;99.90;;;;;;5026010;28;20037;-65
2022/09/13 10:04:21;;;;;;;5.13;2.47;;;22.60;99.90;;;;;;5028748;28;20033;-64
2022/09/13 10:06:48;;;;;;;4.47;2.33;;;22.70;99.90;;;;;;5026662;28;20036;-65
2022/09/13 10:09:19;;;;;;;7.15;3.22;;;22.70;99.90;;;;;;5025806;28;20029;-64
2022/09/13 10:11:57;;;;;;;4.03;2.38;;;22.90;99.90;;;;;;5026148;28;20077;-65
2022/09/13 10:14:41;;;;;;;2.72;2.13;;;23.20;99.90;;;;;;5027605;28;20064;-66
2022/09/13 10:17:33;;;;;;;6.85;2.67;;;23.50;99.90;;;;;;5024158;28;20033;-63
2022/09/13 10:20:20;;;;;;;6.03;2.25;;;23.80;99.90;;;;;;5025321;28;20049;-65
2022/09/13 10:23:14;;;;;;;8.68;2.08;;;23.90;99.90;;;;;;5026640;28;20061;-65
2022/09/13 10:25:42;;;;;;;5.32;2.42;;;24.20;99.90;;;;;;5023404;28;20029;-67
2022/09/13 10:28:17;;;;;;;4.00;2.20;;;23.90;99.90;;;;;;5026192;28;20030;-66
2022/09/13 10:30:51;;;;;;;3.83;2.15;;;23.80;99.90;;;;;;5027488;28;20046;-71
2022/09/13 10:33:34;;;;;;;5.68;2.20;;;23.60;99.90;;;;;;5029549;28;20443;-62
2022/09/13 10:36:04;;;;;;;3.53;2.17;;;23.60;99.90;;;;;;5033637;28;20034;-66
2022/09/13 10:38:32;;;;;;;5.18;2.30;;;23.80;99.90;;;;;;5027809;28;20047;-70
2022/09/13 10:41:01;;;;;;;8.80;2.80;;;23.90;99.90;;;;;;5028578;28;20048;-65
2022/09/13 10:43:29;;;;;;;4.68;2.45;;;23.90;99.90;;;;;;5029791;28;20080;-63
2022/09/13 10:45:55;;;;;;;3.50;2.08;;;23.90;99.90;;;;;;5028095;28;20029;-65
2022/09/13 10:48:21;;;;;;;6.28;2.25;;;24.00;99.90;;;;;;5028599;28;20026;-64
2022/09/13 10:51:04;;;;;;;5.38;2.17;;;23.80;99.90;;;;;;5027687;28;20475;-63
2022/09/13 10:53:40;;;;;;;6.18;2.20;;;23.90;99.90;;;;;;5028059;28;20041;-63
2022/09/13 10:56:20;;;;;;;6.30;2.55;;;24.30;99.90;;;;;;5028799;28;20029;-65
2022/09/13 10:58:45;;;;;;;7.47;2.20;;;24.70;99.90;;;;;;5028941;28;20437;-64
2022/09/13 11:01:35;;;;;;;3.15;1.67;;;25.10;99.90;;;;;;5026294;28;20029;-63
2022/09/13 11:04:38;;;;;;;2.92;2.08;;;25.20;97.90;;;;;;5027423;28;20042;-64
2022/09/13 11:07:13;;;;;;;2.80;2.00;;;25.20;96.10;;;;;;5025298;28;20207;-64
2022/09/13 11:10:00;;;;;;;2.15;1.88;;;25.30;98.00;;;;;;5028179;28;20538;-64
2022/09/13 11:12:38;;;;;;;3.35;1.85;;;25.50;97.30;;;;;;5024304;28;20379;-64
2022/09/13 11:15:18;;;;;;;3.47;2.05;;;25.40;96.50;;;;;;5026512;28;20060;-63
2022/09/13 11:17:59;;;;;;;;;;;25.50;99.10;;;;;;5028231;28;20081;-63
2022/09/13 11:21:01;;;;;;;4.07;1.85;;;25.70;97.70;;;;;;5028206;28;19971;-65
2022/09/13 11:24:16;;;;;;;6.32;2.10;;;25.20;97.90;;;;;;4990733;28;20133;-65
2022/09/13 11:26:55;;;;;;;3.15;2.00;;;24.70;98.30;;;;;;5027770;28;20029;-62
2022/09/13 11:29:53;;;;;;;5.20;2.07;;;24.50;99.40;;;;;;5028542;28;20030;-63
2022/09/13 11:32:32;;;;;;;2.60;1.90;;;24.30;97.90;;;;;;5025454;28;20059;-63
2022/09/13 11:35:06;;;;;;;5.30;2.17;;;24.50;97.80;;;;;;5026587;28;20515;-63
2022/09/13 11:37:42;;;;;;;3.28;1.92;;;24.80;98.60;;;;;;5027209;28;20478;-65
2022/09/13 11:40:48;;;;;;;5.88;1.90;;;25.10;99.80;;;;;;5027643;28;20482;-62
2022/09/13 11:43:33;;;;;;;7.18;2.03;;;25.20;98.10;;;;;;5006463;28;20064;-63
2022/09/13 11:46:19;;;;;;;3.30;1.88;;;24.80;96.90;;;;;;5027768;28;20120;-62
2022/09/13 11:49:21;;;;;;;3.10;1.90;;;24.70;98.90;;;;;;5028124;28;20113;-63
2022/09/13 11:52:01;;;;;;;3.50;1.70;;;24.80;96.20;;;;;;5023346;28;20053;-62
2022/09/13 11:54:58;;;;;;;1.92;1.50;;;24.80;98.00;;;;;;5027368;28;20034;-64
2022/09/13 11:57:34;;;;;;;2.30;1.40;;;25.00;96.50;;;;;;5026165;28;20041;-63
2022/09/13 12:00:18;;;;;;;3.53;1.55;;;25.20;95.10;;;;;;5025411;28;20091;-64
2022/09/13 12:03:02;;;;;;;2.25;1.52;;;25.50;97.30;;;;;;5019600;28;20068;-66
2022/09/13 12:05:35;;;;;;;2.20;1.42;;;25.60;96.20;;;;;;5027961;28;20029;-62
2022/09/13 12:08:10;;;;;;;2.92;1.50;;;25.70;95.10;;;;;;5026681;28;20033;-62
2022/09/13 12:10:47;;;;;;;2.67;1.50;;;25.80;94.80;;;;;;5026071;28;20045;-64
2022/09/13 12:13:35;;;;;;;2.08;1.77;;;25.80;93.50;;;;;;5027978;28;20037;-63
2022/09/13 12:16:08;;;;;;;2.92;1.70;;;25.80;94.20;;;;;;5024021;28;20025;-63
2022/09/13 12:18:41;;;;;;;2.67;1.75;;;25.80;93.50;;;;;;5027245;28;20033;-63
2022/09/13 12:21:13;;;;;;;2.03;1.40;;;25.80;95.40;;;;;;5027276;28;20210;-62
2022/09/13 12:23:51;;;;;;;5.20;1.67;;;25.80;95.30;;;;;;5026171;28;20856;-62
2022/09/13 12:26:28;;;;;;;4.15;1.75;;;25.80;95.30;;;;;;5017166;28;20133;-63
2022/09/13 12:28:58;;;;;;;2.85;1.73;;;25.90;96.60;;;;;;5016562;28;20037;-62
2022/09/13 12:31:30;;;;;;;3.67;1.90;;;26.20;96.30;;;;;;5030775;28;20202;-62
2022/09/13 12:33:56;;;;;;;2.17;1.40;;;26.30;95.70;;;;;;5029458;28;20517;-63
2022/09/13 12:36:46;;;;;;;2.72;1.40;;;26.40;93.60;;;;;;5034114;28;20026;-62
2022/09/13 12:39:22;;;;;;;4.95;1.40;;;26.40;91.30;;;;;;5029930;28;20036;-63
2022/09/13 12:42:17;;;;;;;1.95;1.30;;;26.40;90.60;;;;;;5029180;28;20107;-62
2022/09/13 12:44:48;;;;;;;1.88;1.33;;;26.60;91.50;;;;;;5027961;28;20028;-62
2022/09/13 12:47:32;;;;;;;1.85;1.40;;;26.70;89.80;;;;;;5036329;28;20100;-63
2022/09/13 12:50:39;;;;;;;2.63;1.30;;;26.70;88.50;;;;;;5023944;28;20723;-64
2022/09/13 12:53:42;;;;;;;4.95;1.48;;;26.50;86.50;;;;;;5029863;28;20049;-62
2022/09/13 12:56:26;;;;;;;1.95;1.10;;;26.30;87.70;;;;;;5026077;28;20033;-62
2022/09/13 12:59:23;;;;;;;1.90;1.20;;;26.20;80.30;;;;;;5029490;28;20045;-63
2022/09/13 13:01:50;;;;;;;2.05;1.10;;;26.10;88.20;;;;;;5030215;28;20037;-62
2022/09/13 13:04:29;;;;;;;2.00;1.00;;;26.00;90.00;;;;;;5029397;28;20048;-63
2022/09/13 13:06:58;;;;;;;1.98;1.00;;;26.00;81.70;;;;;;5035529;28;20032;-62
2022/09/13 13:09:23;;;;;;;1.88;0.80;;;26.00;83.20;;;;;;5032165;28;20029;-63
2022/09/13 13:11:50;;;;;;;1.17;0.80;;;26.00;82.50;;;;;;5035281;28;20182;-62
2022/09/13 13:14:45;;;;;;;1.40;0.80;;;26.00;85.70;;;;;;5030732;28;20056;-61
2022/09/13 13:17:36;;;;;;;1.38;0.75;;;25.90;78.50;;;;;;5028661;28;20071;-62